createdAt,value
2022-09-30T00:05:08.701Z,16.30
2022-09-30T00:15:15.113Z,21.30
2022-09-30T00:25:21.161Z,23.20
2022-09-30T00:35:27.359Z,22.70
2022-09-30T00:45:33.928Z,19.80
2022-09-30T00:55:48.706Z,18.10
2022-09-30T01:05:54.951Z,20.50
2022-09-30T01:16:20.639Z,19.80
2022-09-30T01:26:29.808Z,20.40
2022-09-30T01:36:45.449Z,19.00
2022-09-30T01:46:58.672Z,16.50
2022-09-30T01:57:09.920Z,17.70
2022-09-30T02:07:19.986Z,19.20
2022-09-30T02:17:30.181Z,18.30
2022-09-30T02:27:42.789Z,17.20
2022-09-30T02:37:52.743Z,18.00
2022-09-30T02:48:17.211Z,17.80
2022-09-30T02:58:27.187Z,18.40
2022-09-30T03:08:33.296Z,17.90
2022-09-30T03:18:56.701Z,19.25
2022-09-30T03:29:18.077Z,19.00
2022-09-30T03:39:25.097Z,18.60
2022-09-30T03:49:37.110Z,19.50
2022-09-30T03:59:43.234Z,22.10
2022-09-30T04:09:49.379Z,22.90
2022-09-30T04:19:55.483Z,22.70
2022-09-30T04:30:01.871Z,25.10
2022-09-30T04:40:08.201Z,24.00
2022-09-30T04:50:14.533Z,22.80
2022-09-30T05:00:21.682Z,21.40
2022-09-30T05:10:27.910Z,23.30
2022-09-30T05:20:35.029Z,18.70
2022-09-30T05:30:43.187Z,20.80
2022-09-30T05:40:49.294Z,23.20
2022-09-30T05:50:59.595Z,20.90
2022-09-30T06:01:12.914Z,22.70
2022-09-30T06:11:20.967Z,20.80
2022-09-30T06:21:26.983Z,22.30
2022-09-30T06:31:33.127Z,23.70
2022-09-30T06:41:44.737Z,24.40
2022-09-30T06:51:52.423Z,23.60
2022-09-30T07:01:58.733Z,20.60
2022-09-30T07:12:05.895Z,18.40
2022-09-30T07:22:35.571Z,19.40
2022-09-30T07:32:41.594Z,19.60
2022-09-30T07:42:47.666Z,16.10
2022-09-30T07:52:54.374Z,15.50
2022-09-30T08:03:00.402Z,14.60
2022-09-30T08:13:06.531Z,16.70
2022-09-30T08:23:12.628Z,17.00
2022-09-30T08:33:18.662Z,16.00
2022-09-30T08:43:27.709Z,14.80
2022-09-30T08:53:40.396Z,16.00
2022-09-30T09:03:46.676Z,17.50
2022-09-30T09:14:03.135Z,15.30
2022-09-30T09:24:15.144Z,15.00
2022-09-30T09:34:21.228Z,14.40
2022-09-30T09:44:46.077Z,12.90
2022-09-30T09:54:57.896Z,14.40
2022-09-30T10:05:05.585Z,18.80
2022-09-30T10:15:20.216Z,14.10
2022-09-30T10:25:26.503Z,20.80
2022-09-30T10:35:32.537Z,13.90
2022-09-30T10:45:39.839Z,15.00
2022-09-30T10:55:46.792Z,11.60
2022-09-30T11:05:52.879Z,13.20
2022-09-30T11:16:06.514Z,13.50
2022-09-30T11:26:45.102Z,13.30
2022-09-30T11:37:01.805Z,13.60
2022-09-30T11:47:07.845Z,13.80
2022-09-30T11:57:27.351Z,11.40
2022-09-30T12:07:52.157Z,10.30
2022-09-30T12:18:03.858Z,13.30
2022-09-30T12:28:34.585Z,14.20
2022-09-30T12:38:56.040Z,16.10
2022-09-30T12:49:05.355Z,15.70
2022-09-30T12:59:12.246Z,19.00
2022-09-30T13:09:18.235Z,18.90
2022-09-30T13:19:32.136Z,16.40
2022-09-30T13:29:40.472Z,15.00
2022-09-30T13:39:49.070Z,15.60
2022-09-30T13:50:13.815Z,15.90
2022-09-30T14:00:22.622Z,13.70
2022-09-30T14:10:30.202Z,14.80
2022-09-30T14:21:07.290Z,14.65
2022-09-30T14:31:15.656Z,18.80
2022-09-30T14:41:23.651Z,17.00
2022-09-30T14:51:35.858Z,19.50
2022-09-30T15:01:42.103Z,22.00
2022-09-30T15:11:48.702Z,24.70
2022-09-30T15:21:56.744Z,30.80
2022-09-30T15:32:04.728Z,30.30
2022-09-30T15:42:11.101Z,29.10
2022-09-30T15:52:38.039Z,38.50
2022-09-30T16:02:44.286Z,49.50
2022-09-30T16:12:50.893Z,37.30
2022-09-30T16:22:57.437Z,32.80
2022-09-30T16:33:07.846Z,34.20
2022-09-30T16:43:14.074Z,33.80
2022-09-30T16:53:20.565Z,41.70
2022-09-30T17:03:27.362Z,41.10
2022-09-30T17:13:33.597Z,37.30
2022-09-30T17:23:40.620Z,37.50
2022-09-30T17:33:55.078Z,38.20
2022-09-30T17:44:03.825Z,36.50
2022-09-30T17:54:10.149Z,37.40
2022-09-30T18:04:20.718Z,41.40
2022-09-30T18:14:28.555Z,40.90
2022-09-30T18:24:55.812Z,69.30
2022-09-30T18:35:03.040Z,46.20
2022-09-30T18:45:11.751Z,75.70
2022-09-30T18:55:18.576Z,40.10
2022-09-30T19:05:24.780Z,38.90
2022-09-30T19:15:31.494Z,34.70
2022-09-30T19:25:40.052Z,35.30
2022-09-30T19:35:46.267Z,36.30
2022-09-30T19:45:59.851Z,35.00
2022-09-30T19:56:08.498Z,33.30
2022-09-30T20:06:16.631Z,33.90
2022-09-30T20:16:23.490Z,37.60
2022-09-30T20:26:29.790Z,31.80
2022-09-30T20:36:36.333Z,36.40
2022-09-30T20:46:42.840Z,31.20
2022-09-30T20:57:06.943Z,33.70
2022-09-30T21:07:13.513Z,33.00
2022-09-30T21:17:19.529Z,32.00
2022-09-30T21:27:25.554Z,32.80
2022-09-30T21:37:31.640Z,36.40
2022-09-30T21:47:37.675Z,35.90
2022-09-30T21:57:44.492Z,36.80
2022-09-30T22:07:50.570Z,36.70
2022-09-30T22:17:56.668Z,36.60
2022-09-30T22:28:02.908Z,38.20
2022-09-30T22:38:18.180Z,38.60
2022-09-30T22:48:24.210Z,43.80
2022-09-30T22:58:30.254Z,44.30
2022-09-30T23:08:42.911Z,43.90
2022-09-30T23:18:49.162Z,45.70
2022-09-30T23:28:58.834Z,41.80
2022-09-30T23:39:06.684Z,41.50
2022-09-30T23:49:12.760Z,42.30
2022-09-30T23:59:19.638Z,42.00
